Date,TemperatureHighF,TemperatureAvgF,TemperatureLowF,DewpointHighF,DewpointAvgF,DewpointLowF,HumidityHigh,HumidityAvg,HumidityLow,PressureMaxIn,PressureMinIn,WindSpeedMaxMPH,WindSpeedAvgMPH,GustSpeedMaxMPH,PrecipitationSumIn
2012-1-1,51.2,46.4,39.4,48.9,42.1,36.4,92,85,72,30.11,29.69,14,7,19,0.12
2012-1-2,49.0,39.6,31.6,45.6,25.2,18.4,88,57,43,29.85,29.69,22,10,26,0.00
2012-1-3,32.3,27.6,18.5,23.5,13.4,2.6,72,56,43,30.14,29.81,18,12,26,0.00
2012-1-4,29.2,21.5,13.7,19.5,6.7,0.0,70,53,32,30.25,29.97,19,10,30,0.00
2012-1-5,38.5,32.2,27.2,28.9,25.3,19.5,92,76,58,29.99,29.86,20,7,23,0.00
2012-1-6,56.7,43.2,31.0,38.1,32.5,24.3,88,68,38,29.97,29.76,13,7,18,0.00
2012-1-7,63.9,49.9,39.1,39.5,35.2,31.2,79,59,36,29.96,29.73,11,6,17,0.00
2012-1-8,47.6,41.8,34.4,32.1,29.6,23.8,75,62,50,30.31,29.96,10,5,15,0.00
2012-1-9,40.9,35.3,31.7,30.8,25.5,21.3,89,68,57,30.32,29.99,7,2,9,0.00
2012-1-10,47.6,39.3,32.9,34.7,31.7,28.8,92,75,55,30.01,29.88,13,6,18,0.01
2012-1-11,46.9,39.7,32.6,44.9,34.5,28.0,93,81,71,30.09,29.74,16,6,21,0.23
2012-1-12,52.3,47.5,44.1,51.8,46.8,43.6,98,97,93,29.74,29.36,22,8,31,0.70
2012-1-13,49.7,38.8,30.8,47.6,29.3,15.7,98,70,45,29.86,29.28,20,12,31,0.02
2012-1-14,34.4,30.7,27.7,20.4,18.9,17.7,70,62,53,30.08,29.86,19,10,25,0.00
2012-1-15,28.3,24.0,18.9,19.6,8.8,0.8,76,53,35,30.57,30.08,13,8,21,0.00
2012-1-16,41.2,28.2,16.9,31.6,17.5,3.8,76,64,50,30.61,30.17,14,8,22,0.00
2012-1-17,54.9,44.7,38.0,49.2,41.2,31.0,96,88,69,30.17,29.57,17,10,22,0.19
2012-1-18,54.9,40.3,27.0,50.2,25.3,12.0,85,55,40,30.16,29.58,26,13,32,0.00
2012-1-19,38.4,31.5,22.9,31.4,22.3,13.3,77,68,57,30.22,29.93,13,7,18,0.00
2012-1-20,38.6,32.6,29.6,30.2,16.9,7.1,78,53,35,30.29,29.94,13,7,16,0.00
2012-1-21,39.0,33.1,29.6,37.7,29.1,14.4,95,86,48,30.25,29.89,21,11,29,0.45
2012-1-22,42.8,33.8,26.2,39.2,30.2,21.5,91,86,79,30.48,30.25,17,12,20,0.00
2012-1-23,51.4,47.6,42.8,50.4,46.3,39.1,100,95,87,30.38,29.89,14,8,21,0.12
2012-1-24,54.9,48.2,42.3,51.8,42.2,34.2,98,81,61,30.14,29.89,13,7,23,0.00
2012-1-25,47.4,41.7,38.7,34.7,32.5,28.9,80,70,57,30.31,30.14,10,4,19,0.00
2012-1-26,50.3,41.9,36.4,48.9,37.9,31.2,95,86,76,30.22,29.78,9,4,11,0.02
2012-1-27,58.6,50.6,43.9,57.8,46.5,32.9,98,87,64,29.87,29.34,25,14,30,0.35
2012-1-28,46.3,41.8,36.0,36.8,31.9,17.5,81,68,35,30.06,29.87,15,8,27,0.00
2012-1-29,45.7,39.6,32.6,31.3,20.6,16.7,68,47,33,30.22,30.03,15,8,23,0.00
2012-1-30,42.1,37.5,34.8,32.3,21.7,16.0,71,53,38,30.32,30.02,16,9,22,0.00
2012-1-31,61.4,48.8,37.9,40.5,34.5,20.0,82,59,34,30.26,30.03,13,8,18,0.00
2012-2-1,64.8,55.2,48.8,46.5,41.5,35.1,79,60,50,30.04,29.88,14,8,21,0.05
2012-2-2,49.4,44.0,38.5,42.1,35.2,25.8,84,71,59,30.22,29.95,14,7,20,0.00
2012-2-3,46.5,38.5,31.9,27.3,24.5,21.3,76,58,39,30.44,30.22,12,6,22,0.00
2012-2-4,45.6,39.6,33.4,34.3,28.8,25.8,78,66,47,30.36,30.07,7,3,9,0.00
2012-2-5,41.2,37.0,33.0,31.4,27.1,23.2,74,67,61,30.18,30.06,15,8,21,0.00
2012-2-6,52.0,40.1,30.5,31.2,27.1,21.6,76,61,37,30.17,30.00,13,8,19,0.00
2012-2-7,52.2,42.3,36.0,35.7,31.6,30.0,80,67,46,30.21,29.97,12,7,15,0.00
2012-2-8,39.0,36.4,33.2,33.5,30.0,22.8,95,78,56,30.28,30.07,12,7,17,0.11
2012-2-9,43.1,36.0,31.6,32.4,28.6,25.0,95,76,49,30.15,30.05,14,9,19,0.00
2012-2-10,47.4,38.9,31.6,39.8,30.8,22.1,88,73,45,30.15,29.91,15,6,22,0.00
2012-2-11,37.3,35.0,33.2,34.6,32.7,29.3,96,91,82,29.91,29.55,12,6,15,0.16
2012-2-12,33.4,27.7,21.6,29.8,16.4,8.9,90,63,50,30.01,29.64,22,14,29,0.01
2012-2-13,42.5,33.9,25.5,24.7,19.8,16.3,70,57,39,30.08,29.98,12,9,20,0.00
2012-2-14,45.5,40.3,35.2,38.5,30.6,23.3,85,69,48,30.11,29.99,11,4,14,0.03
2012-2-15,45.0,42.9,37.4,42.9,39.6,33.8,94,88,80,30.27,30.02,7,4,9,0.00
2012-2-16,44.2,39.7,34.6,43.1,37.4,32.0,96,92,87,30.29,30.00,9,2,10,0.16
2012-2-17,51.3,44.8,38.7,44.2,36.9,27.2,97,76,49,30.02,29.92,16,6,19,0.00
2012-2-18,46.1,41.0,35.8,38.3,29.5,20.7,87,64,41,30.09,29.88,14,7,24,0.04
2012-2-19,42.2,39.1,34.3,33.5,29.2,25.4,79,68,56,30.08,29.91,19,9,22,0.00
2012-2-20,47.3,39.8,34.1,28.8,22.9,17.6,65,52,35,30.32,29.91,21,10,28,0.00
2012-2-21,46.9,42.0,32.3,42.0,32.4,22.0,87,69,50,30.34,29.86,13,7,18,0.00
2012-2-22,59.9,47.9,41.6,44.9,40.4,28.9,93,77,32,29.86,29.47,14,7,24,0.00
2012-2-23,60.5,52.6,46.3,47.0,40.4,29.8,90,67,35,29.74,29.38,17,9,27,0.00
2012-2-24,48.0,45.0,42.0,46.9,42.1,36.2,96,90,71,29.72,29.29,22,12,30,0.64
2012-2-25,45.0,41.0,36.8,36.1,26.4,21.3,71,56,43,30.05,29.46,25,16,34,0.00
2012-2-26,45.9,38.1,32.3,31.7,21.8,16.3,77,53,35,30.44,30.05,24,9,31,0.00
2012-2-27,51.1,44.4,35.9,41.1,37.1,30.1,90,76,60,30.43,30.10,18,10,29,0.00
2012-2-28,51.5,44.6,39.0,40.3,30.8,24.0,87,59,36,30.37,30.13,19,8,26,0.00
2012-2-29,47.4,44.1,39.2,46.3,41.7,33.7,98,91,79,30.35,29.70,15,4,19,0.58
2012-3-1,50.2,44.6,40.2,46.7,42.3,37.0,98,92,75,29.95,29.59,14,6,17,0.02
2012-3-2,46.8,42.1,38.3,44.9,37.8,34.6,94,85,77,30.10,29.75,19,10,25,0.08
2012-3-3,56.8,51.5,47.0,54.3,42.5,26.7,98,75,37,29.75,29.47,15,8,21,0.25
2012-3-4,47.2,41.8,36.9,32.5,25.9,21.6,63,53,42,29.78,29.58,17,7,21,0.00
2012-3-5,44.1,38.2,31.4,25.9,21.1,10.5,72,51,33,30.37,29.77,13,8,23,0.00
2012-3-6,40.1,34.8,27.7,32.4,19.7,10.3,76,55,33,30.64,30.37,13,8,25,0.00
2012-3-7,54.5,50.1,38.7,46.9,41.2,29.8,89,72,51,30.60,30.33,19,12,26,0.00
2012-3-8,62.9,55.4,48.7,52.2,49.1,45.3,88,80,67,30.33,29.88,21,14,30,0.00
2012-3-9,58.7,47.8,39.9,53.1,33.7,20.3,89,60,37,30.26,29.85,18,10,27,0.06
2012-3-10,42.1,37.1,31.6,24.5,17.9,10.6,58,46,31,30.54,30.26,13,7,23,0.00
2012-3-11,55.3,44.8,36.5,41.6,31.8,22.6,81,61,34,30.55,30.36,16,9,21,0.00
2012-3-12,62.5,51.4,41.9,48.9,41.1,35.6,85,69,42,30.37,30.12,15,8,21,0.00
2012-3-13,66.7,56.6,51.7,58.3,52.3,48.4,96,86,68,30.12,29.93,11,7,18,0.15
2012-3-14,70.1,59.3,51.8,56.8,47.8,33.9,92,69,27,30.17,29.98,11,5,17,0.00
2012-3-15,56.9,46.6,44.0,45.9,43.8,40.2,97,90,54,30.31,30.16,14,9,20,0.00
2012-3-16,46.3,45.5,44.8,45.8,45.0,44.0,98,98,97,30.27,30.10,15,8,20,0.01
2012-3-17,47.3,45.4,44.0,46.8,44.9,43.5,99,98,97,30.36,30.17,8,4,11,0.00
2012-3-18,51.0,47.7,44.9,48.8,46.4,44.4,98,95,91,30.36,30.20,10,5,12,0.00
2012-3-19,65.5,55.3,48.8,55.3,49.3,39.0,95,82,39,30.22,30.16,11,5,17,0.00
2012-3-20,56.5,52.0,49.7,54.2,51.3,48.9,98,97,91,30.31,30.21,11,5,15,0.01
2012-3-21,55.9,53.6,51.2,55.6,53.2,50.9,99,98,97,30.34,30.27,7,3,9,0.01
2012-3-22,65.5,57.5,52.5,60.6,56.3,52.2,99,96,83,30.29,30.08,9,4,14,0.01
2012-3-23,66.9,58.3,53.0,62.3,55.0,49.7,97,89,76,30.08,30.02,13,6,16,0.00
2012-3-24,55.3,52.3,49.6,50.9,48.3,46.1,94,86,72,30.06,29.93,14,9,17,0.06
2012-3-25,49.6,48.1,47.1,48.2,46.0,45.0,95,92,89,29.92,29.72,19,12,25,0.09
2012-3-26,56.5,49.0,37.5,49.4,33.2,13.9,93,59,28,30.11,29.69,19,10,27,0.01
2012-3-27,53.5,41.9,32.6,35.1,14.3,2.7,67,35,13,30.26,30.11,16,8,26,0.00
2012-3-28,68.4,55.9,43.3,53.0,42.2,25.5,72,60,46,30.17,29.54,16,9,24,0.00
2012-3-29,64.2,54.7,44.7,53.0,40.9,31.7,77,60,50,30.00,29.54,15,10,28,0.00
2012-3-30,51.3,45.1,40.4,38.9,32.1,26.5,75,61,40,30.08,29.91,11,7,17,0.00
2012-3-31,46.9,44.3,42.3,44.8,41.5,37.7,96,90,71,29.96,29.80,23,14,28,0.50
2012-4-1,50.6,46.0,42.6,45.1,41.9,39.7,92,86,73,29.89,29.60,12,6,17,0.09
2012-4-2,57.1,49.4,42.8,45.8,34.7,20.8,95,61,31,29.86,29.54,16,10,23,0.10
2012-4-3,63.3,52.2,40.4,33.2,25.6,18.4,58,37,20,29.94,29.76,13,8,28,0.00
2012-4-4,70.0,59.7,52.8,45.2,35.9,27.7,69,43,22,29.77,29.49,16,7,22,0.00
2012-4-5,52.8,48.6,44.2,39.5,32.7,26.0,71,55,38,29.89,29.70,16,8,30,0.00
2012-4-6,53.0,47.0,39.5,36.0,29.1,22.4,66,50,32,30.00,29.88,13,8,18,0.00
2012-4-7,61.1,51.5,41.7,29.1,23.8,14.9,52,35,20,30.08,29.93,17,9,25,0.00
2012-4-8,66.4,56.1,44.5,40.3,27.8,21.4,50,35,19,30.01,29.67,22,10,29,0.00
2012-4-9,62.4,56.5,50.0,37.9,30.6,25.9,57,38,27,29.77,29.65,28,13,38,0.00
2012-4-10,60.9,54.2,47.2,38.5,32.7,25.5,69,46,27,29.80,29.67,15,8,19,0.00
2012-4-11,54.0,48.1,41.5,37.8,33.7,27.4,82,59,40,29.89,29.76,16,10,17,0.00
2012-4-12,59.4,50.7,43.4,38.9,36.7,32.8,79,60,38,30.10,29.88,12,7,19,0.00
2012-4-13,55.9,51.3,44.7,42.7,37.3,33.1,70,59,48,30.20,30.10,13,6,20,0.00
2012-4-14,72.1,56.5,45.6,50.7,41.9,32.5,74,60,24,30.22,30.02,11,7,17,0.00
2012-4-15,79.1,65.6,58.6,57.9,53.3,47.2,77,65,46,30.05,29.94,12,6,14,0.00
2012-4-16,74.6,64.9,55.5,62.3,57.5,52.1,91,77,59,30.04,29.91,14,6,14,0.00
2012-4-17,78.7,69.7,64.6,60.6,51.2,38.5,84,54,29,30.11,29.91,11,6,14,0.00
2012-4-18,64.6,54.4,51.9,46.8,42.0,36.7,79,63,40,30.25,30.10,14,7,21,0.00
2012-4-19,57.8,54.7,52.1,51.5,47.8,43.9,90,78,62,30.12,30.01,11,5,15,0.00
2012-4-20,56.6,54.3,50.6,54.1,51.4,48.2,96,90,85,30.03,29.85,8,4,10,0.00
2012-4-21,65.2,58.2,53.4,59.8,55.9,52.8,98,92,78,29.85,29.67,13,8,18,0.04
2012-4-22,62.1,53.5,49.3,59.9,51.6,47.5,98,93,83,29.76,29.21,27,12,33,2.24
2012-4-23,58.6,50.6,42.4,58.0,46.4,37.3,99,86,72,29.44,29.10,14,10,22,0.03
2012-4-24,58.9,50.2,41.5,47.7,38.2,25.5,87,66,29,29.71,29.43,17,11,27,0.00
2012-4-25,62.3,53.2,44.6,48.0,40.2,33.4,78,62,34,29.89,29.71,16,6,19,0.00
2012-4-26,57.2,53.7,49.2,56.4,51.0,42.7,97,91,69,29.91,29.59,12,4,16,0.00
2012-4-27,59.4,52.5,46.1,57.7,37.9,29.1,97,59,42,30.14,29.58,21,14,31,0.01
2012-4-28,57.9,48.9,40.3,39.1,30.1,24.4,73,50,28,30.25,30.11,11,7,17,0.00
2012-4-29,64.4,53.9,44.9,40.2,32.8,20.9,82,49,19,30.22,30.05,15,7,21,0.00
2012-4-30,55.2,51.5,45.1,47.9,35.5,23.7,81,56,32,30.33,30.19,10,6,14,0.00
2012-5-1,73.5,59.8,53.5,62.3,55.6,47.8,95,87,62,30.19,29.95,15,7,19,0.32
2012-5-2,55.2,51.5,50.0,52.7,49.5,48.3,95,93,92,30.17,30.05,12,8,17,0.08
2012-5-3,55.2,53.5,51.3,53.6,52.1,49.4,98,95,92,30.17,30.05,8,4,12,0.06
2012-5-4,67.9,59.3,54.3,62.3,57.0,53.6,99,92,78,30.09,29.83,10,5,13,0.04
2012-5-5,61.8,55.3,53.7,60.6,54.6,52.9,99,98,94,30.03,29.83,11,7,14,0.19
2012-5-6,56.6,54.0,52.3,53.5,51.3,49.7,97,91,81,30.11,30.01,12,6,16,0.00
2012-5-7,58.4,54.8,51.0,54.2,50.8,47.7,96,86,73,30.15,30.08,10,5,15,0.00
2012-5-8,67.1,60.2,55.4,59.0,54.6,49.9,89,82,67,30.09,29.83,17,11,25,0.00
2012-5-9,64.2,61.9,57.0,63.6,60.9,56.3,99,97,89,29.83,29.54,14,6,26,1.63
2012-5-10,66.3,60.0,54.9,59.2,48.8,38.4,99,70,39,29.85,29.50,18,10,23,0.24
2012-5-11,69.5,60.8,51.1,44.6,40.6,32.9,75,50,29,30.11,29.85,17,9,19,0.00
2012-5-12,73.8,64.4,54.0,55.1,47.5,40.1,69,55,33,30.23,30.11,10,5,15,0.00
2012-5-13,77.3,67.5,60.7,61.4,55.0,48.0,75,65,44,30.19,30.08,18,8,23,0.00
2012-5-14,68.6,64.5,59.1,61.6,58.9,54.6,92,82,63,30.16,30.09,10,7,16,0.00
2012-5-15,66.0,60.5,58.0,64.2,58.9,56.1,98,94,91,30.10,29.92,11,7,15,0.54
2012-5-16,72.3,66.2,60.6,67.7,63.1,57.5,98,90,73,29.93,29.82,10,6,16,0.01
2012-5-17,67.2,61.7,57.8,64.5,50.9,42.3,92,68,51,30.11,29.88,12,6,16,0.00
2012-5-18,62.9,59.7,56.0,53.3,50.1,45.1,87,71,58,30.21,30.11,11,6,16,0.00
2012-5-19,65.2,61.1,55.1,54.1,49.0,41.5,82,65,42,30.15,30.10,12,6,16,0.00
2012-5-20,65.0,61.1,58.3,58.4,55.0,51.4,97,81,66,30.21,30.10,16,11,22,0.00
2012-5-21,61.2,59.8,58.2,60.9,59.3,57.6,99,98,97,30.17,29.94,13,7,18,0.93
2012-5-22,66.1,61.9,60.1,64.7,61.1,59.8,99,97,94,29.94,29.80,10,5,13,0.06
2012-5-23,69.5,65.0,62.6,65.5,63.0,61.4,96,93,85,30.01,29.84,10,4,13,0.00
2012-5-24,68.2,65.1,64.0,65.9,64.1,62.9,99,97,90,30.16,30.01,10,5,12,0.00
2012-5-25,73.1,67.2,63.5,69.9,66.1,63.2,99,96,89,30.17,30.11,9,5,15,0.00
2012-5-26,81.6,72.9,66.7,70.7,67.9,65.5,97,85,66,30.15,30.06,13,7,22,0.00
2012-5-27,79.3,73.0,69.9,71.1,67.6,59.4,94,84,66,30.15,30.00,13,7,22,0.07
2012-5-28,87.9,75.5,69.4,74.5,68.7,65.7,93,80,53,30.00,29.89,10,5,16,0.00
2012-5-29,87.5,78.8,73.1,72.9,71.2,65.1,91,78,58,29.91,29.71,17,9,26,0.00
2012-5-30,75.7,70.9,63.8,69.4,66.8,62.6,96,87,76,29.77,29.69,8,3,8,0.09
2012-5-31,81.6,71.1,63.9,67.8,61.3,53.0,98,74,41,29.91,29.68,12,5,16,0.01
2012-6-1,69.5,67.2,65.3,67.4,61.7,55.3,96,83,63,29.98,29.74,20,12,37,0.22
2012-6-2,76.2,69.3,64.4,69.2,58.7,49.7,97,71,44,29.77,29.64,18,10,39,1.48
2012-6-3,76.9,66.6,60.4,58.8,53.7,49.0,85,65,38,29.77,29.63,25,9,25,0.17
2012-6-4,62.9,59.9,56.6,58.2,54.5,49.7,93,83,65,29.77,29.57,19,10,26,0.39
2012-6-5,63.9,59.0,53.9,51.2,49.5,47.6,82,71,59,29.93,29.76,16,7,26,0.00
2012-6-6,68.0,62.7,55.6,57.6,54.0,50.6,84,74,57,29.99,29.92,12,6,18,0.00
2012-6-7,71.8,64.7,58.7,63.2,58.9,55.1,90,82,63,29.98,29.91,12,7,16,0.11
2012-6-8,79.3,69.6,60.5,65.9,60.0,56.1,91,73,50,29.94,29.82,10,6,13,0.00
2012-6-9,85.1,73.7,65.7,65.1,59.6,55.4,76,62,37,29.96,29.86,12,5,13,0.00
2012-6-10,75.7,71.8,68.4,68.3,65.8,61.7,92,82,66,30.15,29.96,9,4,11,0.03
2012-6-11,71.0,68.2,66.4,65.8,63.7,60.8,92,86,72,30.22,30.12,14,10,22,0.00
2012-6-12,70.6,67.7,66.0,66.9,65.4,63.6,97,93,87,30.15,29.86,14,9,17,0.49
2012-6-13,68.5,65.8,63.8,67.3,64.9,63.1,98,97,95,30.04,29.80,15,10,22,0.75
2012-6-14,67.8,65.2,63.5,63.7,62.4,60.4,97,91,84,30.23,30.03,14,8,19,0.00
2012-6-15,72.1,66.8,60.5,60.6,58.0,49.3,94,75,49,30.27,30.20,12,7,18,0.00
2012-6-16,71.7,66.4,62.1,61.0,57.8,54.7,85,74,56,30.31,30.21,12,7,17,0.00
2012-6-17,65.4,63.1,60.8,58.2,55.7,53.9,84,77,69,30.22,30.08,12,8,14,0.00
2012-6-18,66.8,63.5,60.9,58.9,56.4,54.5,84,78,69,30.14,30.07,8,4,10,0.00
2012-6-19,72.9,68.3,63.8,66.8,63.2,58.9,87,84,76,30.16,30.07,11,7,17,0.00
2012-6-20,93.8,80.8,68.9,76.0,71.0,64.8,93,74,52,30.08,29.93,12,6,16,0.00
2012-6-21,97.3,87.1,78.4,74.8,71.9,67.0,82,62,38,29.93,29.77,10,5,14,0.00
2012-6-22,89.5,78.7,68.8,74.1,70.5,65.6,94,77,57,29.84,29.72,7,2,10,1.73
2012-6-23,85.7,76.9,68.5,69.5,63.6,56.8,95,67,39,29.97,29.77,12,4,15,0.02
2012-6-24,77.8,74.1,68.1,70.7,64.0,59.0,88,71,56,30.00,29.89,10,5,16,0.02
2012-6-25,78.0,71.2,65.3,70.9,65.3,59.5,94,82,53,29.89,29.62,16,6,24,1.10
2012-6-26,73.5,67.2,59.3,60.5,53.5,49.8,79,62,48,29.77,29.68,19,11,23,0.00
2012-6-27,82.1,72.7,61.4,58.8,53.9,49.6,71,53,36,29.83,29.73,18,9,24,0.00
2012-6-28,92.0,79.4,68.4,70.1,60.8,56.2,77,55,31,29.85,29.71,13,6,16,0.00
2012-6-29,97.1,83.6,71.7,76.3,70.9,63.9,90,67,45,29.74,29.58,16,4,17,0.38
2012-6-30,89.1,81.9,74.1,77.3,71.4,65.4,86,72,48,29.78,29.63,22,7,31,0.01
2012-7-1,93.5,83.9,74.0,76.2,70.7,66.8,84,66,45,29.84,29.72,17,6,18,0.00
2012-7-2,86.3,80.8,75.6,71.0,63.2,57.8,72,56,39,29.92,29.83,8,5,11,0.00
2012-7-3,85.5,78.8,72.6,74.4,66.3,59.8,87,66,44,29.95,29.82,11,6,14,0.00
2012-7-4,92.4,81.3,72.5,76.6,71.6,68.4,89,73,50,29.87,29.71,13,6,22,0.54
2012-7-5,94.1,84.3,77.0,76.3,71.8,65.4,87,68,42,29.82,29.70,12,6,17,0.00
2012-7-6,82.1,78.4,75.4,75.8,72.6,69.2,90,83,66,29.92,29.82,10,6,13,0.00
2012-7-7,99.2,84.4,74.1,75.4,72.9,69.7,93,71,40,29.89,29.75,21,6,23,0.77
2012-7-9,79.0,76.6,74.8,66.2,62.3,59.0,74,62,52,29.96,29.90,13,8,21,0.00
2012-7-10,79.9,75.9,72.1,70.3,67.0,63.5,80,74,60,30.06,29.95,10,5,13,0.00
2012-7-11,79.9,76.0,73.6,69.7,67.8,65.0,86,76,65,30.16,30.06,9,5,11,0.00
2012-7-12,79.0,75.4,70.7,68.1,65.7,62.9,86,72,64,30.19,30.14,9,5,13,0.00
2012-7-13,79.2,73.7,71.7,67.1,65.1,63.5,82,75,60,30.19,30.17,5,2,9,0.00
2012-7-16,89.9,84.3,76.1,74.6,72.7,69.9,88,69,52,29.90,29.80,12,6,14,0.02
2012-7-17,91.4,87.6,82.0,77.2,71.5,62.5,78,60,42,29.85,29.75,14,8,21,0.00
2012-7-18,96.1,84.4,74.3,80.4,74.3,70.9,93,73,50,29.88,29.75,18,7,24,0.20
2012-7-19,78.3,75.1,71.9,75.5,71.6,67.7,94,89,83,29.95,29.83,13,6,19,0.06
2012-7-20,75.2,70.7,66.3,72.0,66.4,60.1,94,86,74,30.01,29.88,24,16,31,0.86
2012-7-21,72.9,70.4,68.3,62.2,60.5,57.5,78,71,66,30.10,29.98,14,9,30,0.00
2012-7-22,76.5,72.2,65.8,67.4,64.1,60.8,88,76,63,30.16,30.09,10,5,15,0.00
2012-7-23,85.8,79.8,70.8,76.5,72.9,65.8,87,80,68,30.11,29.81,16,8,22,0.00
2012-7-24,94.0,84.1,75.6,74.5,70.7,64.8,89,66,41,29.81,29.57,16,8,22,0.00
2012-7-25,81.0,76.0,70.5,69.4,60.3,54.1,79,59,47,29.89,29.69,13,8,21,0.00
2012-7-26,92.7,79.1,71.5,78.2,71.3,61.7,93,77,57,29.81,29.62,21,9,30,0.27
2012-7-27,89.6,80.4,71.8,77.1,73.3,70.3,96,80,57,29.84,29.65,13,5,16,0.67
2012-7-28,82.6,77.9,69.9,76.8,73.1,67.2,92,85,74,29.95,29.82,17,5,23,1.67
2012-7-29,77.2,74.0,70.7,70.2,69.1,66.4,95,85,76,30.03,29.86,11,6,16,0.02
2012-7-30,76.9,74.9,73.3,69.4,68.2,66.6,86,80,72,30.11,30.02,11,6,13,0.00
2012-7-31,77.5,74.8,73.5,69.5,68.2,65.6,85,80,70,30.06,29.90,10,6,15,0.00
2012-8-1,80.6,76.0,73.9,73.5,71.1,68.7,91,85,77,29.93,29.81,10,4,12,0.01
2012-8-2,85.8,78.7,71.4,74.7,72.4,69.3,94,82,67,29.92,29.83,13,6,18,0.00
2012-8-3,85.0,80.7,76.5,77.3,75.0,73.3,92,83,71,30.08,29.92,12,7,16,0.00
2012-8-4,83.7,80.0,76.6,78.6,76.2,74.5,94,88,82,30.18,30.08,11,7,14,0.00
2012-8-5,88.3,81.8,73.6,78.8,76.4,70.9,93,84,72,30.18,29.97,19,11,29,0.36
2012-8-6,83.3,78.1,73.8,75.7,73.5,66.5,96,86,68,30.02,29.94,11,6,20,0.86
2012-8-7,79.8,76.6,71.8,73.5,67.3,61.9,89,73,62,30.00,29.95,8,5,11,0.00
2012-8-8,81.4,78.1,75.7,75.8,74.2,72.7,93,88,80,29.98,29.92,8,4,11,0.00
2012-8-9,83.2,78.6,74.6,76.2,74.7,72.8,95,88,77,29.96,29.86,10,6,14,0.00
2012-8-10,80.6,77.3,71.6,76.2,74.2,69.5,96,90,83,29.89,29.73,12,7,21,1.69
2012-8-11,83.4,77.4,74.0,76.0,73.5,69.5,93,88,74,29.91,29.78,14,8,19,0.08
2012-8-12,83.8,77.0,72.6,72.7,70.4,64.6,95,81,53,29.95,29.86,10,5,15,0.00
2012-8-13,87.2,77.6,69.4,69.0,64.3,59.5,82,65,40,30.01,29.93,10,6,13,0.00
2012-8-14,79.8,75.8,71.3,74.5,71.3,66.6,90,86,76,29.96,29.85,9,5,14,0.06
2012-8-15,81.3,76.2,70.8,74.6,72.1,67.4,95,87,74,29.87,29.79,14,5,15,0.00
2012-8-16,86.8,76.8,69.0,68.9,65.1,58.8,94,70,42,29.90,29.84,10,5,15,0.00
2012-8-17,87.9,78.8,71.6,73.2,68.1,61.1,84,70,47,29.89,29.77,15,8,19,0.00
2012-8-18,76.8,71.4,66.1,68.9,64.7,61.6,92,80,66,29.92,29.81,13,7,17,0.11
2012-8-19,74.5,71.6,66.7,65.7,59.7,56.1,84,67,55,29.97,29.90,10,5,11,0.00
2012-8-20,76.6,73.4,71.6,63.7,61.4,57.9,75,66,59,29.92,29.84,9,5,13,0.00
2012-8-21,78.5,73.0,67.4,66.8,63.8,62.0,87,73,59,30.08,29.91,8,4,9,0.00
2012-8-22,78.9,74.3,69.1,71.2,67.5,65.4,92,80,65,30.14,30.07,9,4,12,0.00
2012-8-23,80.2,74.5,68.8,69.9,67.5,64.9,89,79,61,30.15,30.09,9,4,14,0.00
2012-8-24,79.6,74.8,70.3,70.6,68.3,66.5,90,80,67,30.16,30.10,7,3,10,0.00
2012-8-25,78.9,76.1,72.8,72.2,69.4,66.4,89,80,71,30.24,30.16,13,8,18,0.00
2012-8-26,78.0,75.6,73.7,70.3,68.4,66.2,86,78,72,30.29,30.20,13,9,18,0.00
2012-8-27,80.7,76.6,72.1,75.5,73.0,68.8,94,89,82,30.20,29.95,13,7,18,1.19
2012-8-28,86.1,78.8,74.2,74.4,70.7,63.4,95,78,49,29.96,29.79,13,8,19,0.10
2012-8-29,75.9,72.6,68.4,64.8,61.4,57.3,80,68,54,30.00,29.87,14,7,16,0.00
2012-8-30,83.0,74.2,67.2,69.5,62.6,55.2,90,69,41,30.09,30.00,9,5,15,0.00
2012-8-31,92.6,80.4,71.0,74.4,66.4,57.7,96,66,33,30.06,29.90,9,6,14,0.00
2012-9-1,90.4,79.9,75.4,73.0,68.3,57.0,90,69,34,30.03,29.92,12,7,16,0.00
2012-9-2,79.1,76.4,74.9,73.1,71.7,70.4,89,85,80,30.06,29.99,8,6,12,0.00
2012-9-3,76.6,75.0,70.6,74.0,71.2,68.4,95,88,81,30.11,30.04,16,12,20,0.67
2012-9-4,79.9,75.2,70.4,76.5,73.7,68.3,97,95,86,30.07,29.86,11,6,21,3.01
2012-9-5,86.2,77.0,72.3,76.1,74.3,70.9,98,92,72,29.86,29.75,16,7,22,1.62
2012-9-6,76.6,73.0,68.7,71.9,69.7,66.0,98,89,83,29.90,29.81,7,3,9,0.00
2012-9-7,85.2,76.4,70.0,74.7,70.5,68.4,96,83,63,29.92,29.82,13,7,20,0.01
2012-9-8,82.0,76.3,65.8,76.4,72.5,62.5,94,88,77,29.86,29.60,20,11,28,0.16
2012-9-9,73.7,69.1,65.1,64.2,62.5,57.7,90,80,67,29.87,29.75,10,6,15,0.03
2012-9-10,74.4,66.9,60.2,59.2,53.0,47.3,86,63,39,30.11,29.86,13,7,18,0.00
2012-9-11,71.5,63.9,55.8,58.0,50.7,45.1,79,63,40,30.27,30.11,9,5,20,0.00
2012-9-12,77.4,68.4,61.2,61.1,56.7,52.7,84,68,45,30.35,30.27,8,5,13,0.00
2012-9-13,74.9,69.2,62.8,62.6,60.8,57.8,92,75,56,30.37,30.26,8,4,11,0.00
2012-9-14,75.1,69.7,63.5,65.8,63.0,60.4,91,80,67,30.27,30.08,9,5,13,0.00
2012-9-15,74.6,68.3,63.0,64.1,55.7,50.7,90,66,45,30.12,30.04,11,7,16,0.00
2012-9-16,73.7,65.9,58.8,57.4,53.3,48.8,80,65,42,30.12,30.01,9,4,12,0.00
2012-9-17,75.1,67.5,58.4,64.3,54.7,50.2,80,65,43,30.11,30.02,11,5,16,0.00
2012-9-18,77.0,73.4,68.5,72.1,69.1,64.0,95,86,77,30.02,29.66,22,13,31,0.93
2012-9-19,72.4,66.1,60.9,67.1,54.0,46.0,95,67,39,30.15,29.73,18,6,20,0.00
2012-9-20,70.7,66.0,60.6,61.7,57.5,49.7,85,74,59,30.16,30.07,12,8,15,0.00
2012-9-21,70.8,67.3,65.4,61.7,59.8,57.9,87,77,66,30.09,29.99,8,6,12,0.00
2012-9-22,75.8,69.6,63.2,68.7,64.5,58.7,91,84,76,29.99,29.79,16,8,23,0.02
2012-9-23,70.8,64.6,57.3,64.7,51.0,40.7,93,64,35,30.10,29.86,15,8,19,0.01
2012-9-24,68.2,60.1,52.5,49.2,45.7,39.9,84,61,37,30.16,30.09,11,6,16,0.00
2012-9-25,72.0,64.3,56.3,59.4,51.9,45.0,79,64,49,30.20,30.11,16,9,24,0.00
2012-9-26,78.0,71.1,65.1,67.5,63.3,57.8,88,77,61,30.15,30.00,13,9,26,0.00
2012-9-27,72.0,68.3,65.9,66.8,65.0,63.8,94,89,80,30.16,30.03,7,3,12,0.19
2012-9-28,77.2,70.3,66.6,69.5,67.3,64.8,96,90,73,30.12,29.90,14,7,17,0.02
2012-9-29,67.4,63.6,60.3,65.1,58.2,54.8,96,83,68,29.92,29.86,10,5,15,0.05
2012-9-30,70.0,62.5,56.3,56.5,53.4,49.2,94,74,48,29.86,29.76,10,5,13,0.00
2012-10-1,72.6,62.7,53.0,54.6,50.6,46.4,92,67,40,29.96,29.83,10,6,14,0.00
2012-10-2,70.8,68.1,64.3,70.2,63.8,54.6,98,87,71,30.00,29.91,9,4,11,0.29
2012-10-3,70.5,68.7,66.7,70.1,68.3,66.4,99,99,98,30.10,29.94,7,2,8,0.00
2012-10-4,76.3,70.8,67.9,72.0,69.1,65.9,99,95,82,30.12,30.02,9,2,10,0.04
2012-10-5,78.4,69.2,63.2,65.8,62.5,57.4,95,80,49,30.07,29.93,8,6,12,0.00
2012-10-6,76.6,67.9,57.2,67.2,60.7,49.7,88,78,67,29.99,29.75,17,9,21,0.03
2012-10-7,57.2,52.6,49.4,50.1,46.4,41.9,92,80,64,30.11,29.98,15,6,19,0.16
2012-10-8,58.2,51.4,46.6,51.3,46.4,43.5,94,83,70,30.26,30.09,11,5,13,0.00
2012-10-9,61.8,59.0,56.2,59.9,56.6,50.9,96,92,77,30.18,30.01,20,14,26,0.56
2012-10-10,68.0,62.6,56.8,62.7,56.7,45.6,97,82,57,30.01,29.80,18,8,26,0.44
2012-10-11,61.1,54.0,48.2,45.7,39.3,34.0,74,59,37,30.20,29.97,19,9,23,0.00
2012-10-12,60.7,52.6,45.8,46.9,40.5,30.6,90,65,48,30.40,30.08,14,8,18,0.00
2012-10-13,55.0,48.5,40.2,48.3,35.6,30.2,78,62,45,30.50,30.29,9,6,17,0.00
2012-10-14,71.8,61.1,52.2,60.1,53.6,46.8,91,78,45,30.30,29.96,17,9,26,0.00
2012-10-15,72.6,65.6,60.8,63.3,61.2,58.5,93,86,70,29.96,29.63,13,9,22,0.11
2012-10-16,60.8,56.2,51.1,58.5,45.6,40.5,92,69,49,29.90,29.65,17,9,22,0.01
2012-10-17,61.3,54.2,46.5,49.4,44.8,41.3,87,71,51,30.00,29.90,7,3,11,0.00
2012-10-18,65.3,59.8,51.1,62.9,55.0,46.5,94,85,69,30.02,29.89,13,6,16,0.00
2012-10-19,68.3,65.4,63.2,65.5,63.6,60.2,97,94,86,29.90,29.64,19,10,30,0.13
2012-10-20,70.8,62.7,56.3,65.0,55.0,44.9,98,78,43,29.84,29.65,11,6,15,0.02
2012-10-21,65.0,56.9,49.4,46.9,45.1,43.4,81,65,48,30.03,29.84,15,8,17,0.00
2012-10-22,67.4,58.0,50.8,49.1,45.9,43.8,78,65,45,30.11,30.01,14,8,17,0.00
2012-10-23,65.4,59.4,52.3,60.0,52.7,46.4,92,79,63,30.11,30.04,6,2,10,0.00
2012-10-24,62.0,60.4,59.1,60.2,58.2,57.0,97,92,89,30.16,30.05,12,6,16,0.00
2012-10-25,62.0,61.2,60.5,58.4,57.4,56.3,90,88,84,30.24,30.16,8,6,11,0.00
2012-10-26,64.2,61.7,59.4,61.5,59.1,57.6,95,91,87,30.21,30.08,8,4,12,0.00
2012-10-27,63.5,61.5,60.3,58.6,55.1,50.6,90,79,68,30.08,29.84,18,10,22,0.00
2012-10-28,61.2,59.4,58.1,54.9,53.2,50.5,88,80,68,29.85,29.76,25,20,34,0.00